Time;durP1;ratioP1;P1;durP2;ratioP2;P2;SDS_P1;SDS_P2;PMS_P1;PMS_P2;Temp;Humidity;BMP_temperature;BMP_pressure;BME280_temperature;BME280_humidity;BME280_pressure;Samples;Min_cycle;Max_cycle;Signal;HPM_P1;HPM_P2
2022/01/12 00:02:21;;;;;;;223.75;46.85;;;;;;;-145.67;100.00;66521.78;5001156;28;20041;-71
2022/01/12 00:04:49;;;;;;;226.20;47.53;;;;;;;-145.67;100.00;66521.78;5011327;28;20105;-69
2022/01/12 00:07:15;;;;;;;189.40;45.53;;;;;;;-145.67;100.00;66521.78;5012026;28;20121;-70
2022/01/12 00:09:43;;;;;;;200.88;46.22;;;;;;;-145.67;100.00;66521.78;5007043;28;20037;-70
2022/01/12 00:12:09;;;;;;;282.90;53.80;;;;;;;-145.67;100.00;66521.78;5011976;28;20478;-69
2022/01/12 00:14:37;;;;;;;266.30;50.90;;;;;;;-145.67;100.00;66521.78;5002408;28;20052;-71
2022/01/12 00:17:05;;;;;;;260.15;53.00;;;;;;;-145.67;100.00;66521.78;5002972;28;20164;-68
2022/01/12 00:19:36;;;;;;;242.65;50.65;;;;;;;-145.67;100.00;66521.78;4995790;28;20030;-68
2022/01/12 00:22:04;;;;;;;244.82;49.47;;;;;;;-145.67;100.00;66521.78;5011782;28;20060;-69
2022/01/12 00:25:01;;;;;;;227.13;48.13;;;;;;;-145.67;100.00;66521.78;4990089;28;20107;-69
2022/01/12 00:35:33;;;;;;;246.55;47.00;;;;;;;-145.67;100.00;66521.78;5002534;28;20417;-71
2022/01/12 00:37:59;;;;;;;187.40;43.80;;;;;;;-145.67;100.00;66521.78;4997101;28;20284;-70
2022/01/12 00:40:26;;;;;;;221.32;46.00;;;;;;;-145.67;100.00;66521.78;4996192;28;20092;-71
2022/01/12 00:42:52;;;;;;;230.27;46.15;;;;;;;-145.67;100.00;66521.78;4996975;28;20037;-70
2022/01/12 00:45:21;;;;;;;202.20;45.60;;;;;;;-145.67;100.00;66521.78;4996322;28;20034;-70
2022/01/12 00:47:47;;;;;;;220.60;44.00;;;;;;;-145.67;100.00;66521.78;4996093;28;20056;-70
2022/01/12 00:50:19;;;;;;;237.30;46.88;;;;;;;-145.67;100.00;66521.78;5011304;28;20045;-70
2022/01/12 00:52:45;;;;;;;261.63;48.33;;;;;;;-145.67;100.00;66521.78;4995118;28;20153;-69
2022/01/12 00:55:10;;;;;;;226.80;51.28;;;;;;;-145.67;100.00;66521.78;4996191;28;20049;-70
2022/01/12 00:57:40;;;;;;;362.67;73.50;;;;;;;-145.67;100.00;66521.78;4996077;28;20533;-70
2022/01/12 01:00:07;;;;;;;317.95;64.90;;;;;;;-145.67;100.00;66521.78;4996685;28;20042;-71
2022/01/12 01:02:33;;;;;;;368.60;75.40;;;;;;;-145.67;100.00;66521.78;4997086;28;20117;-70
2022/01/12 01:05:00;;;;;;;340.42;76.53;;;;;;;-145.67;100.00;66521.78;4995958;28;20193;-70
2022/01/12 01:07:27;;;;;;;325.20;78.72;;;;;;;-145.67;100.00;66521.78;4999885;28;20146;-70
2022/01/12 01:10:08;;;;;;;357.60;72.60;;;;;;;-145.67;100.00;66521.78;4996232;28;20041;-70
2022/01/12 01:12:36;;;;;;;307.98;62.47;;;;;;;-145.67;100.00;66521.78;4996569;28;20049;-70
2022/01/12 01:15:09;;;;;;;244.30;48.83;;;;;;;-145.67;100.00;66521.78;5006226;28;20505;-70
2022/01/12 01:25:46;;;;;;;240.95;48.50;;;;;;;-145.67;100.00;66521.78;4996256;28;20265;-70
2022/01/12 01:28:14;;;;;;;229.43;48.63;;;;;;;-145.67;100.00;66521.78;4996097;28;20104;-70
2022/01/12 01:30:44;;;;;;;207.02;45.80;;;;;;;-145.67;100.00;66521.78;4995581;28;20045;-70
2022/01/12 01:33:11;;;;;;;229.00;48.33;;;;;;;-145.67;100.00;66521.78;4995949;28;20037;-70
2022/01/12 01:35:41;;;;;;;228.48;49.30;;;;;;;-145.67;100.00;66521.78;4996248;28;20033;-70
2022/01/12 01:38:07;;;;;;;212.85;45.13;;;;;;;-145.67;100.00;66521.78;4996991;28;20454;-70
2022/01/12 01:40:36;;;;;;;224.05;48.92;;;;;;;-145.67;100.00;66521.78;4996803;28;20703;-70
2022/01/12 01:53:48;;;;;;;193.48;45.65;;;;;;;-145.67;100.00;66521.78;5007838;28;20137;-70
2022/01/12 01:56:16;;;;;;;157.35;38.63;;;;;;;-145.67;100.00;66521.78;5010447;28;20076;-70
2022/01/12 01:58:42;;;;;;;139.27;40.25;;;;;;;-145.67;100.00;66521.78;4995284;28;20045;-70
2022/01/12 02:01:10;;;;;;;130.07;41.40;;;;;;;-145.67;100.00;66521.78;4994908;28;20212;-70
2022/01/12 02:03:35;;;;;;;176.60;61.25;;;;;;;-145.67;100.00;66521.78;4994534;28;20048;-70
2022/01/12 02:06:07;;;;;;;116.13;37.60;;;;;;;-145.67;100.00;66521.78;5009860;28;20129;-70
2022/01/12 02:08:35;;;;;;;81.50;18.50;;;;;;;-145.67;100.00;66521.78;4993583;28;20068;-71
2022/01/12 02:11:01;;;;;;;66.78;16.60;;;;;;;-145.67;100.00;66521.78;4995409;28;20473;-71
2022/01/12 02:13:27;;;;;;;65.22;14.20;;;;;;;-145.67;100.00;66521.78;4992909;28;20052;-71
2022/01/12 02:15:56;;;;;;;68.78;13.38;;;;;;;-145.67;100.00;66521.78;4995011;28;20045;-71
2022/01/12 02:40:38;;;;;;;53.47;7.45;;;;;;;-145.67;100.00;66521.78;5008498;28;20572;-71
2022/01/12 02:43:38;;;;;;;45.92;7.78;;;;;;;-145.67;100.00;66521.78;5008844;28;20330;-71
2022/01/12 02:54:23;;;;;;;42.08;7.07;;;;;;;-145.67;100.00;66521.78;4994958;28;20060;-70
2022/01/12 02:56:51;;;;;;;44.90;7.32;;;;;;;-145.67;100.00;66521.78;4994639;28;20133;-70
2022/01/12 02:59:19;;;;;;;51.17;8.00;;;;;;;-145.67;100.00;66521.78;5009309;28;20061;-70
2022/01/12 03:04:21;;;;;;;37.97;7.68;;;;;;;-145.67;100.00;66521.78;4994333;28;20441;-70
2022/01/12 03:06:51;;;;;;;39.20;6.80;;;;;;;-145.67;100.00;66521.78;5008549;28;20053;-70
2022/01/12 03:09:16;;;;;;;34.22;5.80;;;;;;;-145.67;100.00;66521.78;4992716;28;20386;-72
2022/01/12 03:11:42;;;;;;;39.15;6.82;;;;;;;-145.67;100.00;66521.78;4999553;28;20250;-70
2022/01/12 03:14:12;;;;;;;41.55;7.10;;;;;;;-145.67;100.00;66521.78;4998021;28;20044;-70
2022/01/12 03:16:42;;;;;;;43.20;6.65;;;;;;;-145.67;100.00;66521.78;5012075;28;20516;-70
2022/01/12 03:19:08;;;;;;;44.70;6.57;;;;;;;-145.67;100.00;66521.78;4988027;28;22748;-70
2022/01/12 03:21:34;;;;;;;37.92;5.78;;;;;;;-145.67;100.00;66521.78;4998571;28;20092;-70
2022/01/12 03:24:03;;;;;;;33.45;5.63;;;;;;;-145.67;100.00;66521.78;4999629;28;20617;-70
2022/01/12 03:26:30;;;;;;;47.38;6.40;;;;;;;-145.67;100.00;66521.78;5002042;28;20041;-70
2022/01/12 03:28:57;;;;;;;41.20;5.30;;;;;;;-145.67;100.00;66521.78;5013625;28;20064;-70
2022/01/12 03:31:29;;;;;;;34.13;5.32;;;;;;;-145.67;100.00;66521.78;5013513;28;20045;-70
2022/01/12 03:34:05;;;;;;;28.33;5.07;;;;;;;-145.67;100.00;66521.78;4998491;28;20168;-69
2022/01/12 03:36:54;;;;;;;39.47;5.15;;;;;;;-145.67;100.00;66521.78;5004720;28;20181;-69
2022/01/12 03:39:21;;;;;;;44.10;5.65;;;;;;;-145.67;100.00;66521.78;4998021;28;20037;-71
2022/01/12 03:41:51;;;;;;;31.40;5.25;;;;;;;-145.67;100.00;66521.78;5013256;28;20041;-70
2022/01/12 03:44:19;;;;;;;39.25;5.85;;;;;;;-145.67;100.00;66521.78;5012449;28;20456;-71
2022/01/12 03:46:50;;;;;;;28.90;5.15;;;;;;;-145.67;100.00;66521.78;4998575;28;20046;-71
2022/01/12 03:49:22;;;;;;;27.88;5.45;;;;;;;-145.67;100.00;66521.78;5001698;28;20099;-71
2022/01/12 03:51:49;;;;;;;27.45;6.03;;;;;;;-145.67;100.00;66521.78;4998548;28;20025;-71
2022/01/12 03:54:15;;;;;;;38.85;6.07;;;;;;;-145.67;100.00;66521.78;5012661;28;20540;-71
2022/01/12 03:56:41;;;;;;;34.70;5.45;;;;;;;-145.67;100.00;66521.78;4999134;28;20220;-71
2022/01/12 03:59:06;;;;;;;31.35;5.47;;;;;;;-145.67;100.00;66521.78;5007711;28;20049;-71
2022/01/12 04:01:34;;;;;;;29.30;5.03;;;;;;;-145.67;100.00;66521.78;5013338;28;20038;-71
2022/01/12 04:04:06;;;;;;;24.23;5.80;;;;;;;-145.67;100.00;66521.78;4998993;28;20034;-70
2022/01/12 04:09:19;;;;;;;34.58;5.97;;;;;;;-145.67;100.00;66521.78;5010032;28;20493;-71
2022/01/12 04:11:44;;;;;;;34.03;6.63;;;;;;;-145.67;100.00;66521.78;5012558;28;20150;-71
2022/01/12 04:14:12;;;;;;;49.45;6.65;;;;;;;-145.67;100.00;66521.78;4998799;28;20041;-70
2022/01/12 04:16:45;;;;;;;37.65;6.40;;;;;;;-145.67;100.00;66521.78;4997806;28;20137;-70
2022/01/12 04:19:13;;;;;;;39.15;6.22;;;;;;;-145.67;100.00;66521.78;4997799;28;20528;-70
2022/01/12 04:21:46;;;;;;;35.67;8.00;;;;;;;-145.67;100.00;66521.78;4998463;28;20177;-71
2022/01/12 04:24:17;;;;;;;42.65;8.13;;;;;;;-145.67;100.00;66521.78;4999196;28;20042;-70
2022/01/12 04:26:45;;;;;;;37.80;7.22;;;;;;;-145.67;100.00;66521.78;4996847;28;20049;-71
2022/01/12 04:29:12;;;;;;;30.58;6.72;;;;;;;-145.67;100.00;66521.78;4997224;28;20088;-70
2022/01/12 04:31:37;;;;;;;45.55;7.45;;;;;;;-145.67;100.00;66521.78;4986744;28;20029;-71
2022/01/12 04:34:09;;;;;;;31.10;6.15;;;;;;;-145.67;100.00;66521.78;4996063;28;20377;-71
2022/01/12 04:36:34;;;;;;;32.90;6.30;;;;;;;-145.67;100.00;66521.78;4997106;28;20398;-72
2022/01/12 04:39:00;;;;;;;33.95;5.80;;;;;;;-145.67;100.00;66521.78;4996713;28;20560;-72
2022/01/12 04:41:26;;;;;;;27.95;6.70;;;;;;;-145.67;100.00;66521.78;5012210;28;20041;-70
2022/01/12 04:43:56;;;;;;;27.70;6.10;;;;;;;-145.67;100.00;66521.78;5010996;28;20036;-72
2022/01/12 04:46:29;;;;;;;30.70;5.80;;;;;;;-145.67;100.00;66521.78;4997077;28;20038;-69
2022/01/12 04:51:41;;;;;;;32.20;6.68;;;;;;;-145.67;100.00;66521.78;4996802;28;20594;-73
2022/01/12 04:54:07;;;;;;;33.05;6.13;;;;;;;-145.67;100.00;66521.78;5005587;28;20107;-70
2022/01/12 04:56:35;;;;;;;28.58;5.97;;;;;;;-145.67;100.00;66521.78;5011580;28;20220;-70
2022/01/12 04:59:03;;;;;;;41.30;6.32;;;;;;;-145.67;100.00;66521.78;4995695;28;20041;-69
2022/01/12 05:01:35;;;;;;;31.73;5.80;;;;;;;-145.67;100.00;66521.78;4995443;28;20478;-70
2022/01/12 05:07:13;;;;;;;29.33;6.22;;;;;;;-145.67;100.00;66521.78;4997341;28;20541;-70
2022/01/12 05:09:50;;;;;;;25.80;5.15;;;;;;;-145.67;100.00;66521.78;4997229;28;20152;-71
2022/01/12 05:15:09;;;;;;;27.67;5.15;;;;;;;-145.67;100.00;66521.78;4995974;28;20461;-71
2022/01/12 05:17:35;;;;;;;34.63;6.10;;;;;;;-145.67;100.00;66521.78;4996640;28;20769;-71
2022/01/12 05:20:01;;;;;;;27.83;6.55;;;;;;;-145.67;100.00;66521.78;4984679;28;20034;-71
2022/01/12 05:22:27;;;;;;;23.30;6.03;;;;;;;-145.67;100.00;66521.78;4995765;28;20037;-70
2022/01/12 05:24:55;;;;;;;26.02;6.18;;;;;;;-145.67;100.00;66521.78;4996118;28;20690;-71
2022/01/12 05:27:23;;;;;;;28.42;5.70;;;;;;;-145.67;100.00;66521.78;4983565;28;20038;-71
2022/01/12 05:29:51;;;;;;;33.40;6.75;;;;;;;-145.67;100.00;66521.78;4995602;28;20037;-70
2022/01/12 05:32:23;;;;;;;24.45;6.25;;;;;;;-145.67;100.00;66521.78;4993150;28;20094;-70
2022/01/12 05:35:02;;;;;;;30.63;6.72;;;;;;;-145.67;100.00;66521.78;4994890;28;20044;-72
2022/01/12 05:37:27;;;;;;;25.23;5.95;;;;;;;-145.67;100.00;66521.78;5008829;28;20372;-72
2022/01/12 05:39:53;;;;;;;26.73;6.00;;;;;;;-145.67;100.00;66521.78;4994277;28;20065;-72
2022/01/12 05:42:18;;;;;;;29.38;6.90;;;;;;;-145.67;100.00;66521.78;5001438;28;20053;-72
2022/01/12 05:44:44;;;;;;;27.95;6.25;;;;;;;-145.67;100.00;66521.78;4994299;28;20037;-72
2022/01/12 05:47:19;;;;;;;27.75;6.25;;;;;;;-145.67;100.00;66521.78;5010730;28;20293;-71
2022/01/12 05:49:48;;;;;;;36.38;6.43;;;;;;;-145.67;100.00;66521.78;4995120;28;20510;-72
2022/01/12 05:52:13;;;;;;;31.02;5.90;;;;;;;-145.67;100.00;66521.78;5010168;28;20173;-72
2022/01/12 05:54:39;;;;;;;27.65;6.45;;;;;;;-145.67;100.00;66521.78;4994996;28;20505;-71
2022/01/12 05:57:05;;;;;;;31.20;6.05;;;;;;;-145.67;100.00;66521.78;4994994;28;20092;-71
2022/01/12 05:59:30;;;;;;;30.30;5.90;;;;;;;-145.67;100.00;66521.78;5010222;28;20046;-72
2022/01/12 06:02:00;;;;;;;44.10;7.05;;;;;;;-145.67;100.00;66521.78;5010255;28;20235;-72
2022/01/12 06:04:28;;;;;;;32.63;6.47;;;;;;;-145.67;100.00;66521.78;5009163;28;20025;-72
2022/01/12 06:06:56;;;;;;;26.20;5.85;;;;;;;-145.67;100.00;66521.78;4984686;28;20032;-72
2022/01/12 06:09:22;;;;;;;21.00;5.15;;;;;;;-145.67;100.00;66521.78;4983923;28;20048;-72
2022/01/12 06:11:50;;;;;;;37.17;6.53;;;;;;;-145.67;100.00;66521.78;4995572;28;20044;-72
2022/01/12 06:14:19;;;;;;;32.90;7.18;;;;;;;-145.67;100.00;66521.78;4995617;28;20037;-72
2022/01/12 06:16:44;;;;;;;33.33;6.80;;;;;;;-145.67;100.00;66521.78;5000678;28;20080;-71
2022/01/12 06:19:12;;;;;;;30.83;6.78;;;;;;;-145.67;100.00;66521.78;5010128;28;20056;-71
2022/01/12 06:21:38;;;;;;;27.65;6.70;;;;;;;-145.67;100.00;66521.78;4994936;28;20496;-71
2022/01/12 06:24:04;;;;;;;24.58;6.95;;;;;;;-145.67;100.00;66521.78;4995228;28;20034;-72
2022/01/12 06:26:29;;;;;;;29.73;7.05;;;;;;;-145.67;100.00;66521.78;4995784;28;20030;-71
2022/01/12 06:31:35;;;;;;;30.33;6.97;;;;;;;-145.67;100.00;66521.78;4994799;28;20056;-72
2022/01/12 06:34:01;;;;;;;24.08;6.85;;;;;;;-145.67;100.00;66521.78;4994461;28;20117;-71
2022/01/12 06:36:30;;;;;;;23.65;6.40;;;;;;;-145.67;100.00;66521.78;4995163;28;20451;-73
2022/01/12 06:38:55;;;;;;;25.00;6.63;;;;;;;-145.67;100.00;66521.78;5009481;28;20046;-70
2022/01/12 06:41:23;;;;;;;35.28;6.88;;;;;;;-145.67;100.00;66521.78;5001709;28;20069;-70
2022/01/12 06:43:49;;;;;;;26.77;6.32;;;;;;;-145.67;100.00;66521.78;4994964;28;20061;-70
2022/01/12 06:46:18;;;;;;;36.35;6.53;;;;;;;-145.67;100.00;66521.78;5010017;28;20136;-70
2022/01/12 06:48:45;;;;;;;39.13;7.13;;;;;;;-145.67;100.00;66521.78;4993835;28;20509;-70
2022/01/12 06:51:13;;;;;;;29.30;7.88;;;;;;;-145.67;100.00;66521.78;4992389;28;20095;-71
2022/01/12 06:53:42;;;;;;;26.35;7.13;;;;;;;-145.67;100.00;66521.78;4993275;28;20049;-72
2022/01/12 06:56:10;;;;;;;33.97;7.85;;;;;;;-145.67;100.00;66521.78;4994089;28;20045;-70
2022/01/12 06:58:38;;;;;;;39.17;6.75;;;;;;;-145.67;100.00;66521.78;5000101;28;20506;-72
2022/01/12 07:01:03;;;;;;;42.35;7.78;;;;;;;-145.67;100.00;66521.78;4994278;28;20484;-72
2022/01/12 07:03:29;;;;;;;38.55;6.85;;;;;;;-145.67;100.00;66521.78;5003344;28;20042;-72
2022/01/12 07:05:56;;;;;;;59.92;8.32;;;;;;;-145.67;100.00;66521.78;4994282;28;20038;-72
2022/01/12 07:08:22;;;;;;;38.05;7.65;;;;;;;-145.67;100.00;66521.78;5008581;28;20122;-72
2022/01/12 07:10:47;;;;;;;69.85;9.13;;;;;;;-145.67;100.00;66521.78;4997745;28;20048;-72
2022/01/12 07:13:13;;;;;;;78.05;8.10;;;;;;;-145.67;100.00;66521.78;4994398;28;20127;-72
2022/01/12 07:15:41;;;;;;;53.78;7.88;;;;;;;-145.67;100.00;66521.78;4992952;28;20041;-72
2022/01/12 07:18:07;;;;;;;55.00;8.27;;;;;;;-145.67;100.00;66521.78;4994002;28;20041;-72
2022/01/12 07:20:35;;;;;;;113.95;10.07;;;;;;;-145.67;100.00;66521.78;4993845;28;20045;-72
2022/01/12 07:23:01;;;;;;;86.43;8.63;;;;;;;-145.67;100.00;66521.78;5009003;28;20061;-72
2022/01/12 07:25:28;;;;;;;50.15;9.10;;;;;;;-145.67;100.00;66521.78;4993624;28;20455;-73
2022/01/12 07:27:57;;;;;;;55.35;9.75;;;;;;;-145.67;100.00;66521.78;4994308;28;20121;-72
2022/01/12 07:30:24;;;;;;;89.25;8.68;;;;;;;-145.67;100.00;66521.78;5000702;28;20041;-71
2022/01/12 07:32:53;;;;;;;42.50;7.95;;;;;;;-145.67;100.00;66521.78;4992762;28;20048;-70
2022/01/12 07:35:19;;;;;;;26.30;7.18;;;;;;;-145.67;100.00;66521.78;4993193;28;20087;-70
2022/01/12 07:37:45;;;;;;;28.85;7.93;;;;;;;-145.67;100.00;66521.78;5003759;28;20041;-70
2022/01/12 07:40:11;;;;;;;30.00;7.18;;;;;;;-145.67;100.00;66521.78;4993844;28;20072;-71
2022/01/12 07:42:39;;;;;;;28.90;6.60;;;;;;;-145.67;100.00;66521.78;4993591;28;20036;-70
2022/01/12 07:45:05;;;;;;;34.85;7.80;;;;;;;-145.67;100.00;66521.78;4993946;28;20037;-71
2022/01/12 07:47:34;;;;;;;29.90;7.38;;;;;;;-145.67;100.00;66521.78;4991877;28;20099;-71
2022/01/12 07:50:00;;;;;;;33.60;6.63;;;;;;;-145.67;100.00;66521.78;4993715;28;20042;-69
2022/01/12 07:52:30;;;;;;;24.85;5.82;;;;;;;-145.67;100.00;66521.78;5007857;28;20095;-69
2022/01/12 07:54:58;;;;;;;27.90;6.20;;;;;;;-145.67;100.00;66521.78;5008365;28;20180;-72
2022/01/12 07:57:23;;;;;;;27.60;5.63;;;;;;;-145.67;100.00;66521.78;4993975;28;20069;-69
2022/01/12 07:59:54;;;;;;;32.72;6.30;;;;;;;-145.67;100.00;66521.78;5008073;28;20470;-69
2022/01/12 08:02:20;;;;;;;25.52;5.60;;;;;;;-145.67;100.00;66521.78;4995178;28;20382;-69
2022/01/12 08:04:45;;;;;;;26.73;6.28;;;;;;;-145.67;100.00;66521.78;5011966;28;20037;-69
2022/01/12 08:07:11;;;;;;;27.35;6.07;;;;;;;-145.67;100.00;66521.78;4997410;28;20040;-70
2022/01/12 08:09:41;;;;;;;33.80;6.95;;;;;;;-145.67;100.00;66521.78;4991730;28;20041;-70
2022/01/12 08:12:09;;;;;;;24.33;6.05;;;;;;;-145.67;100.00;66521.78;4997518;28;20038;-70
2022/01/12 08:14:36;;;;;;;25.15;6.25;;;;;;;-145.67;100.00;66521.78;4996368;28;20034;-69
2022/01/12 08:17:04;;;;;;;20.48;6.10;;;;;;;-145.67;100.00;66521.78;4997391;28;20037;-69
2022/01/12 08:19:33;;;;;;;27.17;5.80;;;;;;;-145.67;100.00;66521.78;5005826;28;20099;-70
2022/01/12 08:22:02;;;;;;;17.55;5.40;;;;;;;-145.67;100.00;66521.78;5010961;28;20094;-70
2022/01/12 08:24:30;;;;;;;26.95;5.20;;;;;;;-145.67;100.00;66521.78;4996694;28;20088;-70
2022/01/12 08:26:56;;;;;;;30.45;5.43;;;;;;;-145.67;100.00;66521.78;5011570;28;20061;-70
2022/01/12 08:29:22;;;;;;;26.52;5.88;;;;;;;-145.67;100.00;66521.78;4994722;28;20397;-70
2022/01/12 08:31:48;;;;;;;27.75;5.45;;;;;;;-145.67;100.00;66521.78;4996921;28;20136;-70
2022/01/12 08:34:18;;;;;;;35.08;6.28;;;;;;;-145.67;100.00;66521.78;5001747;28;20090;-70
2022/01/12 08:36:44;;;;;;;28.70;5.80;;;;;;;-145.67;100.00;66521.78;4996775;28;20045;-71
2022/01/12 08:39:10;;;;;;;36.85;6.25;;;;;;;-145.67;100.00;66521.78;4996396;28;20545;-70
2022/01/12 08:41:37;;;;;;;35.85;7.22;;;;;;;-145.67;100.00;66521.78;4996927;28;20504;-70
2022/01/12 08:44:06;;;;;;;31.05;6.90;;;;;;;-145.67;100.00;66521.78;4994958;28;20030;-70
2022/01/12 08:46:32;;;;;;;37.50;7.68;;;;;;;-145.67;100.00;66521.78;5010458;28;20030;-70
2022/01/12 08:49:00;;;;;;;35.65;5.97;;;;;;;-145.67;100.00;66521.78;4996123;28;20037;-71
2022/01/12 08:51:26;;;;;;;62.38;8.13;;;;;;;-145.67;100.00;66521.78;4995752;28;20064;-70
2022/01/12 08:53:51;;;;;;;66.78;9.25;;;;;;;-145.67;100.00;66521.78;4995823;28;20065;-70
2022/01/12 08:56:17;;;;;;;73.70;11.57;;;;;;;-145.67;100.00;66521.78;4996242;28;20041;-70
2022/01/12 08:58:45;;;;;;;68.63;10.63;;;;;;;-145.67;100.00;66521.78;5010653;28;20077;-70
2022/01/12 09:01:11;;;;;;;82.82;11.13;;;;;;;-145.67;100.00;66521.78;4996107;28;20065;-70
2022/01/12 09:03:39;;;;;;;77.05;13.35;;;;;;;-145.67;100.00;66521.78;4995394;28;20460;-70
2022/01/12 09:06:05;;;;;;;60.00;12.02;;;;;;;-145.67;100.00;66521.78;4995838;28;20034;-70
2022/01/12 09:08:34;;;;;;;89.50;13.75;;;;;;;-145.67;100.00;66521.78;5010685;28;20060;-70
2022/01/12 09:11:02;;;;;;;80.90;14.32;;;;;;;-145.67;100.00;66521.78;5000328;28;20042;-70
2022/01/12 09:13:33;;;;;;;83.95;14.23;;;;;;;-145.67;100.00;66521.78;4992289;28;20045;-70
2022/01/12 09:16:00;;;;;;;70.25;11.75;;;;;;;-145.67;100.00;66521.78;5005675;28;20448;-70
2022/01/12 09:18:28;;;;;;;74.20;12.13;;;;;;;-145.67;100.00;66521.78;4993402;28;20042;-70
2022/01/12 09:20:53;;;;;;;63.17;10.77;;;;;;;-145.67;100.00;66521.78;4995354;28;20088;-70
2022/01/12 09:23:19;;;;;;;60.90;10.63;;;;;;;-145.67;100.00;66521.78;5010369;28;20080;-69
2022/01/12 09:25:45;;;;;;;77.38;12.07;;;;;;;-145.67;100.00;66521.78;4995548;28;20038;-69
2022/01/12 09:28:13;;;;;;;80.70;14.90;;;;;;;-145.67;100.00;66521.78;5010556;28;20044;-69
2022/01/12 09:30:39;;;;;;;62.30;12.20;;;;;;;-145.67;100.00;66521.78;5000977;28;20107;-69
2022/01/12 09:33:04;;;;;;;58.00;11.10;;;;;;;-145.67;100.00;66521.78;5010241;28;20051;-69
2022/01/12 09:35:30;;;;;;;61.80;11.73;;;;;;;-145.67;100.00;66521.78;4995296;28;20029;-69
2022/01/12 09:37:58;;;;;;;68.05;13.80;;;;;;;-145.67;100.00;66521.78;4993702;28;20041;-69
2022/01/12 09:40:28;;;;;;;48.42;11.25;;;;;;;-145.67;100.00;66521.78;5010533;28;20773;-69
2022/01/12 09:43:05;;;;;;;53.70;9.52;;;;;;;-145.67;100.00;66521.78;4995183;28;20126;-69
2022/01/12 09:45:31;;;;;;;55.42;10.98;;;;;;;-145.67;100.00;66521.78;4998767;28;20030;-70
2022/01/12 09:48:00;;;;;;;60.65;10.60;;;;;;;-145.67;100.00;66521.78;4995160;28;20565;-71
2022/01/12 09:50:26;;;;;;;69.22;11.82;;;;;;;-145.67;100.00;66521.78;4994172;28;20133;-70
2022/01/12 09:52:52;;;;;;;59.78;11.35;;;;;;;-145.67;100.00;66521.78;4995093;28;20062;-69
2022/01/12 09:55:19;;;;;;;51.65;10.90;;;;;;;-145.67;100.00;66521.78;4995673;28;20172;-70
2022/01/12 09:57:47;;;;;;;59.08;10.60;;;;;;;-145.67;100.00;66521.78;4995338;28;20313;-70
2022/01/12 10:00:22;;;;;;;54.88;9.85;;;;;;;-145.67;100.00;66521.78;4995071;28;20048;-71
2022/01/12 10:02:47;;;;;;;55.28;10.20;;;;;;;-145.67;100.00;66521.78;4994383;28;20037;-70
2022/01/12 10:05:16;;;;;;;53.25;11.15;;;;;;;-145.67;100.00;66521.78;4993211;28;20048;-70
2022/01/12 10:07:44;;;;;;;44.83;10.07;;;;;;;-145.67;100.00;66521.78;4994821;28;20036;-70
2022/01/12 10:10:15;;;;;;;59.13;10.18;;;;;;;-145.67;100.00;66521.78;4999032;28;20030;-70
2022/01/12 10:12:53;;;;;;;65.75;10.88;;;;;;;-145.67;100.00;66521.78;5004631;28;20029;-70
2022/01/12 10:15:19;;;;;;;60.97;10.68;;;;;;;-145.67;100.00;66521.78;4994059;28;20083;-70
2022/01/12 10:17:45;;;;;;;66.07;11.80;;;;;;;-145.67;100.00;66521.78;4998340;28;20046;-70
2022/01/12 10:20:17;;;;;;;62.13;10.50;;;;;;;-145.67;100.00;66521.78;4994889;28;20052;-70
2022/01/12 10:22:55;;;;;;;67.13;11.30;;;;;;;-145.67;100.00;66521.78;4984526;28;20041;-70
2022/01/12 10:25:21;;;;;;;61.85;11.25;;;;;;;-145.67;100.00;66521.78;4994497;28;22535;-70
2022/01/12 10:27:47;;;;;;;71.85;10.13;;;;;;;-145.67;100.00;66521.78;5009118;28;20631;-70
2022/01/12 10:30:24;;;;;;;78.43;12.00;;;;;;;-145.67;100.00;66521.78;4999255;28;20056;-70
2022/01/12 10:33:02;;;;;;;57.90;11.38;;;;;;;-145.67;100.00;66521.78;4994477;28;20048;-70
2022/01/12 10:35:30;;;;;;;74.25;11.10;;;;;;;-145.67;100.00;66521.78;4994153;28;20088;-70
2022/01/12 10:38:16;;;;;;;59.38;11.05;;;;;;;-145.67;100.00;66521.78;5004451;28;20071;-70
2022/01/12 10:40:49;;;;;;;66.60;11.43;;;;;;;-145.67;100.00;66521.78;4992615;28;20127;-69
2022/01/12 10:43:31;;;;;;;84.68;12.25;;;;;;;-145.67;100.00;66521.78;4994384;28;20042;-69
2022/01/12 10:45:58;;;;;;;51.85;8.98;;;;;;;-145.67;100.00;66521.78;4994093;28;20037;-70
2022/01/12 10:48:25;;;;;;;52.95;8.52;;;;;;;-145.67;100.00;66521.78;5008652;28;20038;-70
2022/01/12 10:50:56;;;;;;;55.70;9.63;;;;;;;-145.67;100.00;66521.78;4993579;28;20064;-70
2022/01/12 10:53:33;;;;;;;60.00;8.90;;;;;;;-145.67;100.00;66521.78;4992655;28;20044;-69
2022/01/12 10:56:11;;;;;;;66.35;10.32;;;;;;;-145.67;100.00;66521.78;5009210;28;20049;-69
2022/01/12 10:58:41;;;;;;;50.15;7.70;;;;;;;-145.67;100.00;66521.78;4994036;28;20300;-70
2022/01/12 11:01:09;;;;;;;61.47;8.70;;;;;;;-145.67;100.00;66521.78;4994108;28;20037;-69
2022/01/12 11:03:38;;;;;;;54.03;8.30;;;;;;;-145.67;100.00;66521.78;4993552;28;20038;-69
2022/01/12 11:06:04;;;;;;;66.93;8.43;;;;;;;-145.67;100.00;66521.78;5008571;28;20117;-69
2022/01/12 11:08:30;;;;;;;59.08;9.07;;;;;;;-145.67;100.00;66521.78;5009278;28;20041;-70
2022/01/12 11:10:57;;;;;;;44.30;9.30;;;;;;;-145.67;100.00;66521.78;4994036;28;20042;-70
2022/01/12 11:13:27;;;;;;;57.25;9.73;;;;;;;-145.67;100.00;66521.78;4994060;28;20034;-69
2022/01/12 11:15:53;;;;;;;53.78;9.63;;;;;;;-145.67;100.00;66521.78;4992194;28;20160;-69
2022/01/12 11:18:26;;;;;;;53.80;9.30;;;;;;;-145.67;100.00;66521.78;4999049;28;20754;-68
2022/01/12 11:21:01;;;;;;;48.75;9.88;;;;;;;-145.67;100.00;66521.78;4994081;28;20225;-69
2022/01/12 11:23:41;;;;;;;49.10;11.18;;;;;;;-145.67;100.00;66521.78;4993623;28;20578;-68
2022/01/12 11:26:15;;;;;;;52.90;10.90;;;;;;;-145.67;100.00;66521.78;4993787;28;20434;-69
2022/01/12 11:28:41;;;;;;;62.72;12.20;;;;;;;-145.67;100.00;66521.78;4993865;28;20600;-69
2022/01/12 11:31:09;;;;;;;70.07;12.82;;;;;;;-145.67;100.00;66521.78;4994005;28;20185;-69
2022/01/12 11:33:42;;;;;;;62.17;12.40;;;;;;;-145.67;100.00;66521.78;4975468;28;20042;-68
2022/01/12 11:36:23;;;;;;;50.60;10.95;;;;;;;-145.67;100.00;66521.78;4993042;28;20044;-69
2022/01/12 11:38:59;;;;;;;51.97;12.25;;;;;;;-145.67;100.00;66521.78;5003652;28;20038;-69
2022/01/12 11:41:31;;;;;;;51.33;12.07;;;;;;;-145.67;100.00;66521.78;5013073;28;20497;-68
2022/01/12 11:44:06;;;;;;;;;;;;;;;-145.67;100.00;66521.78;4998176;28;20037;-69
2022/01/12 11:46:45;;;;;;;64.93;13.23;;;;;;;-145.67;100.00;66521.78;4998317;28;20317;-69
2022/01/12 11:49:11;;;;;;;67.18;12.40;;;;;;;-145.67;100.00;66521.78;5011615;28;20042;-69
2022/01/12 11:51:44;;;;;;;49.63;13.00;;;;;;;-145.67;100.00;66521.78;4998055;28;20084;-69
2022/01/12 11:54:15;;;;;;;63.40;13.82;;;;;;;-145.67;100.00;66521.78;4996980;28;20058;-69
2022/01/12 11:57:01;;;;;;;52.97;12.27;;;;;;;-145.67;100.00;66521.78;4997723;28;20090;-68
2022/01/12 11:59:29;;;;;;;50.97;13.32;;;;;;;-145.67;100.00;66521.78;4997395;28;20034;-69
2022/01/12 12:02:12;;;;;;;42.17;13.00;;;;;;;-145.67;100.00;66521.78;5000976;28;20034;-68
2022/01/12 12:04:38;;;;;;;52.08;13.15;;;;;;;-145.67;100.00;66521.78;4997877;28;20088;-70
2022/01/12 12:07:10;;;;;;;54.08;10.05;;;;;;;-145.67;100.00;66521.78;4998379;28;20520;-70
2022/01/12 12:09:43;;;;;;;38.35;9.55;;;;;;;-145.67;100.00;66521.78;5012726;28;21791;-68
2022/01/12 12:12:20;;;;;;;51.22;11.45;;;;;;;-145.67;100.00;66521.78;4996577;28;20029;-69
2022/01/12 12:14:54;;;;;;;44.40;11.20;;;;;;;-145.67;100.00;66521.78;4996439;28;20091;-68
2022/01/12 12:17:29;;;;;;;53.85;14.05;;;;;;;-145.67;100.00;66521.78;4995163;28;20493;-68
2022/01/12 12:19:55;;;;;;;46.90;13.67;;;;;;;-145.67;100.00;66521.78;4996563;28;20050;-70